sensor_id;sensor_type;location;lat;lon;timestamp;P1;durP1;ratioP1;P2;durP2;ratioP2
26062;SDS011;13837;48.562;12.108;2022-11-25T00:04:46;35.10;;;31.42;;
26062;SDS011;13837;48.562;12.108;2022-11-25T00:07:13;35.00;;;31.38;;
26062;SDS011;13837;48.562;12.108;2022-11-25T00:09:39;37.33;;;33.58;;
26062;SDS011;13837;48.562;12.108;2022-11-25T00:12:05;35.65;;;32.28;;
26062;SDS011;13837;48.562;12.108;2022-11-25T00:14:31;36.67;;;32.45;;
26062;SDS011;13837;48.562;12.108;2022-11-25T00:16:57;43.92;;;32.50;;
26062;SDS011;13837;48.562;12.108;2022-11-25T00:19:48;34.70;;;30.80;;
26062;SDS011;13837;48.562;12.108;2022-11-25T00:36:03;33.85;;;30.80;;
26062;SDS011;13837;48.562;12.108;2022-11-25T00:38:31;34.45;;;31.23;;
26062;SDS011;13837;48.562;12.108;2022-11-25T00:41:03;36.53;;;32.95;;
26062;SDS011;13837;48.562;12.108;2022-11-25T00:43:53;35.60;;;31.88;;
26062;SDS011;13837;48.562;12.108;2022-11-25T00:46:37;35.13;;;31.48;;
26062;SDS011;13837;48.562;12.108;2022-11-25T00:49:05;36.17;;;32.30;;
26062;SDS011;13837;48.562;12.108;2022-11-25T00:51:31;36.33;;;32.50;;
26062;SDS011;13837;48.562;12.108;2022-11-25T00:53:57;34.78;;;31.17;;
26062;SDS011;13837;48.562;12.108;2022-11-25T00:56:26;33.50;;;30.15;;
26062;SDS011;13837;48.562;12.108;2022-11-25T00:58:55;33.35;;;30.10;;
26062;SDS011;13837;48.562;12.108;2022-11-25T01:12:34;34.83;;;31.48;;
26062;SDS011;13837;48.562;12.108;2022-11-25T01:15:01;34.85;;;31.40;;
26062;SDS011;13837;48.562;12.108;2022-11-25T01:17:33;33.38;;;30.17;;
26062;SDS011;13837;48.562;12.108;2022-11-25T01:19:59;33.30;;;30.27;;
26062;SDS011;13837;48.562;12.108;2022-11-25T01:22:27;32.22;;;29.27;;
26062;SDS011;13837;48.562;12.108;2022-11-25T01:24:53;31.40;;;28.65;;
26062;SDS011;13837;48.562;12.108;2022-11-25T01:27:21;32.35;;;29.38;;
26062;SDS011;13837;48.562;12.108;2022-11-25T01:29:47;30.95;;;28.08;;
26062;SDS011;13837;48.562;12.108;2022-11-25T01:32:14;32.13;;;29.15;;
26062;SDS011;13837;48.562;12.108;2022-11-25T01:34:40;32.20;;;29.00;;
26062;SDS011;13837;48.562;12.108;2022-11-25T01:37:29;31.83;;;28.67;;
26062;SDS011;13837;48.562;12.108;2022-11-25T01:39:55;34.47;;;30.75;;
26062;SDS011;13837;48.562;12.108;2022-11-25T01:42:21;31.73;;;28.52;;
26062;SDS011;13837;48.562;12.108;2022-11-25T01:48:02;32.53;;;29.30;;
26062;SDS011;13837;48.562;12.108;2022-11-25T01:50:41;32.60;;;29.52;;
26062;SDS011;13837;48.562;12.108;2022-11-25T02:29:21;39.10;;;30.60;;
26062;SDS011;13837;48.562;12.108;2022-11-25T02:31:55;33.38;;;29.88;;
26062;SDS011;13837;48.562;12.108;2022-11-25T02:34:23;32.17;;;29.00;;
26062;SDS011;13837;48.562;12.108;2022-11-25T02:37:52;32.45;;;28.80;;
26062;SDS011;13837;48.562;12.108;2022-11-25T02:40:26;30.45;;;27.45;;
26062;SDS011;13837;48.562;12.108;2022-11-25T02:50:25;33.20;;;29.63;;
26062;SDS011;13837;48.562;12.108;2022-11-25T02:53:06;36.38;;;31.67;;
26062;SDS011;13837;48.562;12.108;2022-11-25T03:09:04;37.35;;;31.17;;
26062;SDS011;13837;48.562;12.108;2022-11-25T03:11:36;33.85;;;30.45;;
26062;SDS011;13837;48.562;12.108;2022-11-25T03:21:53;34.00;;;30.83;;
26062;SDS011;13837;48.562;12.108;2022-11-25T03:24:58;35.85;;;31.58;;
26062;SDS011;13837;48.562;12.108;2022-11-25T03:28:39;34.95;;;31.48;;
26062;SDS011;13837;48.562;12.108;2022-11-25T03:31:44;38.55;;;30.48;;
26062;SDS011;13837;48.562;12.108;2022-11-25T03:35:07;34.95;;;29.77;;
26062;SDS011;13837;48.562;12.108;2022-11-25T03:38:32;32.55;;;28.95;;
26062;SDS011;13837;48.562;12.108;2022-11-25T03:42:25;37.35;;;30.00;;
26062;SDS011;13837;48.562;12.108;2022-11-25T03:57:19;34.60;;;29.15;;
26062;SDS011;13837;48.562;12.108;2022-11-25T03:59:47;43.95;;;29.58;;
26062;SDS011;13837;48.562;12.108;2022-11-25T04:06:39;38.70;;;28.63;;
26062;SDS011;13837;48.562;12.108;2022-11-25T04:09:08;52.63;;;28.70;;
26062;SDS011;13837;48.562;12.108;2022-11-25T04:52:14;33.05;;;29.83;;
26062;SDS011;13837;48.562;12.108;2022-11-25T04:54:52;32.78;;;29.65;;
26062;SDS011;13837;48.562;12.108;2022-11-25T04:57:18;32.33;;;29.55;;
26062;SDS011;13837;48.562;12.108;2022-11-25T05:00:35;32.88;;;29.88;;
26062;SDS011;13837;48.562;12.108;2022-11-25T05:19:20;32.50;;;29.50;;
26062;SDS011;13837;48.562;12.108;2022-11-25T05:52:51;38.05;;;31.52;;
26062;SDS011;13837;48.562;12.108;2022-11-25T05:55:19;35.90;;;32.03;;
26062;SDS011;13837;48.562;12.108;2022-11-25T06:02:14;41.60;;;31.45;;
26062;SDS011;13837;48.562;12.108;2022-11-25T06:07:54;34.97;;;31.70;;
26062;SDS011;13837;48.562;12.108;2022-11-25T06:10:52;35.58;;;31.77;;
26062;SDS011;13837;48.562;12.108;2022-11-25T06:17:55;28.08;;;25.85;;
26062;SDS011;13837;48.562;12.108;2022-11-25T06:20:24;28.77;;;26.33;;
26062;SDS011;13837;48.562;12.108;2022-11-25T06:22:51;31.23;;;28.45;;
26062;SDS011;13837;48.562;12.108;2022-11-25T06:25:23;31.75;;;28.73;;
26062;SDS011;13837;48.562;12.108;2022-11-25T06:27:50;31.52;;;28.23;;
26062;SDS011;13837;48.562;12.108;2022-11-25T06:30:16;29.20;;;26.73;;
26062;SDS011;13837;48.562;12.108;2022-11-25T06:32:48;28.52;;;26.33;;
26062;SDS011;13837;48.562;12.108;2022-11-25T06:35:20;28.45;;;25.77;;
26062;SDS011;13837;48.562;12.108;2022-11-25T06:37:52;26.70;;;24.65;;
26062;SDS011;13837;48.562;12.108;2022-11-25T06:40:18;28.20;;;25.73;;
26062;SDS011;13837;48.562;12.108;2022-11-25T06:42:44;108.60;;;29.05;;
26062;SDS011;13837;48.562;12.108;2022-11-25T06:45:10;27.27;;;24.80;;
26062;SDS011;13837;48.562;12.108;2022-11-25T06:47:36;57.42;;;28.05;;
26062;SDS011;13837;48.562;12.108;2022-11-25T06:50:01;46.63;;;27.10;;
26062;SDS011;13837;48.562;12.108;2022-11-25T06:52:29;28.05;;;25.45;;
26062;SDS011;13837;48.562;12.108;2022-11-25T06:54:55;29.35;;;26.73;;
26062;SDS011;13837;48.562;12.108;2022-11-25T06:57:21;28.98;;;26.67;;
26062;SDS011;13837;48.562;12.108;2022-11-25T06:59:47;28.42;;;26.13;;
26062;SDS011;13837;48.562;12.108;2022-11-25T07:02:13;29.73;;;26.80;;
26062;SDS011;13837;48.562;12.108;2022-11-25T07:04:39;27.48;;;25.48;;
26062;SDS011;13837;48.562;12.108;2022-11-25T07:07:08;30.13;;;27.27;;
26062;SDS011;13837;48.562;12.108;2022-11-25T07:09:35;29.20;;;26.48;;
26062;SDS011;13837;48.562;12.108;2022-11-25T07:12:01;28.27;;;26.27;;
26062;SDS011;13837;48.562;12.108;2022-11-25T07:14:27;29.67;;;27.48;;
26062;SDS011;13837;48.562;12.108;2022-11-25T07:16:54;30.55;;;28.45;;
26062;SDS011;13837;48.562;12.108;2022-11-25T07:19:23;29.60;;;27.38;;
26062;SDS011;13837;48.562;12.108;2022-11-25T07:21:49;51.83;;;41.35;;
26062;SDS011;13837;48.562;12.108;2022-11-25T07:24:37;66.47;;;48.95;;
26062;SDS011;13837;48.562;12.108;2022-11-25T07:27:06;39.78;;;35.88;;
26062;SDS011;13837;48.562;12.108;2022-11-25T07:29:33;39.10;;;35.47;;
26062;SDS011;13837;48.562;12.108;2022-11-25T07:32:07;33.10;;;30.52;;
26062;SDS011;13837;48.562;12.108;2022-11-25T07:34:35;31.35;;;28.80;;
26062;SDS011;13837;48.562;12.108;2022-11-25T07:37:35;28.15;;;26.05;;
26062;SDS011;13837;48.562;12.108;2022-11-25T07:44:17;29.05;;;26.77;;
26062;SDS011;13837;48.562;12.108;2022-11-25T07:46:59;30.00;;;27.40;;
26062;SDS011;13837;48.562;12.108;2022-11-25T07:49:32;29.45;;;27.05;;
26062;SDS011;13837;48.562;12.108;2022-11-25T07:57:36;29.63;;;26.80;;
26062;SDS011;13837;48.562;12.108;2022-11-25T08:00:14;27.10;;;25.30;;
26062;SDS011;13837;48.562;12.108;2022-11-25T08:07:32;28.25;;;26.10;;
26062;SDS011;13837;48.562;12.108;2022-11-25T08:14:49;29.63;;;27.27;;
26062;SDS011;13837;48.562;12.108;2022-11-25T08:17:37;32.25;;;29.42;;
26062;SDS011;13837;48.562;12.108;2022-11-25T08:20:07;31.63;;;28.92;;
26062;SDS011;13837;48.562;12.108;2022-11-25T08:22:36;31.95;;;28.92;;
26062;SDS011;13837;48.562;12.108;2022-11-25T08:25:13;31.67;;;28.90;;
26062;SDS011;13837;48.562;12.108;2022-11-25T08:27:42;31.77;;;29.25;;
26062;SDS011;13837;48.562;12.108;2022-11-25T08:30:08;31.83;;;29.25;;
26062;SDS011;13837;48.562;12.108;2022-11-25T08:42:01;32.53;;;29.30;;
26062;SDS011;13837;48.562;12.108;2022-11-25T08:51:23;31.48;;;28.65;;
26062;SDS011;13837;48.562;12.108;2022-11-25T09:20:30;21.73;;;20.00;;
26062;SDS011;13837;48.562;12.108;2022-11-25T09:23:00;21.38;;;19.65;;
26062;SDS011;13837;48.562;12.108;2022-11-25T09:25:42;24.38;;;22.45;;
26062;SDS011;13837;48.562;12.108;2022-11-25T09:35:42;27.75;;;24.95;;
26062;SDS011;13837;48.562;12.108;2022-11-25T09:38:32;28.92;;;25.90;;
26062;SDS011;13837;48.562;12.108;2022-11-25T09:41:20;28.67;;;26.17;;
26062;SDS011;13837;48.562;12.108;2022-11-25T09:56:46;33.78;;;30.38;;
26062;SDS011;13837;48.562;12.108;2022-11-25T10:00:18;32.25;;;28.92;;
26062;SDS011;13837;48.562;12.108;2022-11-25T10:07:26;35.95;;;32.28;;
26062;SDS011;13837;48.562;12.108;2022-11-25T10:14:39;32.08;;;29.23;;
26062;SDS011;13837;48.562;12.108;2022-11-25T10:17:17;33.85;;;30.40;;
26062;SDS011;13837;48.562;12.108;2022-11-25T10:22:53;31.05;;;27.85;;
26062;SDS011;13837;48.562;12.108;2022-11-25T10:25:22;32.03;;;29.13;;
26062;SDS011;13837;48.562;12.108;2022-11-25T10:27:56;34.58;;;31.48;;
26062;SDS011;13837;48.562;12.108;2022-11-25T10:34:08;30.13;;;27.30;;
26062;SDS011;13837;48.562;12.108;2022-11-25T10:36:51;30.48;;;27.55;;
26062;SDS011;13837;48.562;12.108;2022-11-25T10:39:26;30.88;;;27.80;;
26062;SDS011;13837;48.562;12.108;2022-11-25T10:48:34;29.27;;;26.60;;
26062;SDS011;13837;48.562;12.108;2022-11-25T10:51:20;28.00;;;25.52;;
26062;SDS011;13837;48.562;12.108;2022-11-25T11:10:20;23.60;;;21.38;;
26062;SDS011;13837;48.562;12.108;2022-11-25T11:19:01;19.90;;;18.23;;
26062;SDS011;13837;48.562;12.108;2022-11-25T11:22:22;19.80;;;18.08;;
26062;SDS011;13837;48.562;12.108;2022-11-25T11:25:41;19.20;;;17.27;;
26062;SDS011;13837;48.562;12.108;2022-11-25T11:29:23;19.25;;;17.52;;
26062;SDS011;13837;48.562;12.108;2022-11-25T12:56:14;22.52;;;20.33;;
26062;SDS011;13837;48.562;12.108;2022-11-25T13:41:41;13.40;;;12.40;;
26062;SDS011;13837;48.562;12.108;2022-11-25T14:33:54;17.83;;;16.40;;
26062;SDS011;13837;48.562;12.108;2022-11-25T14:36:35;17.65;;;16.00;;
26062;SDS011;13837;48.562;12.108;2022-11-25T14:42:07;19.08;;;17.17;;
26062;SDS011;13837;48.562;12.108;2022-11-25T14:47:22;17.73;;;16.33;;
26062;SDS011;13837;48.562;12.108;2022-11-25T14:50:18;17.75;;;15.93;;
26062;SDS011;13837;48.562;12.108;2022-11-25T15:06:49;23.55;;;21.13;;
26062;SDS011;13837;48.562;12.108;2022-11-25T15:10:01;27.15;;;21.25;;
26062;SDS011;13837;48.562;12.108;2022-11-25T15:20:54;26.50;;;24.08;;
26062;SDS011;13837;48.562;12.108;2022-11-25T15:23:41;22.30;;;20.08;;
26062;SDS011;13837;48.562;12.108;2022-11-25T15:26:27;23.85;;;20.75;;
26062;SDS011;13837;48.562;12.108;2022-11-25T15:29:21;23.75;;;21.48;;
26062;SDS011;13837;48.562;12.108;2022-11-25T15:31:54;24.10;;;21.70;;
26062;SDS011;13837;48.562;12.108;2022-11-25T15:34:26;24.23;;;21.73;;
26062;SDS011;13837;48.562;12.108;2022-11-25T15:36:59;25.05;;;22.52;;
26062;SDS011;13837;48.562;12.108;2022-11-25T15:39:33;22.55;;;20.15;;
26062;SDS011;13837;48.562;12.108;2022-11-25T15:44:55;22.95;;;20.33;;
26062;SDS011;13837;48.562;12.108;2022-11-25T15:47:32;23.45;;;21.05;;
26062;SDS011;13837;48.562;12.108;2022-11-25T15:50:02;27.60;;;22.63;;
26062;SDS011;13837;48.562;12.108;2022-11-25T16:15:02;23.17;;;20.25;;
26062;SDS011;13837;48.562;12.108;2022-11-25T16:17:38;21.92;;;19.73;;
26062;SDS011;13837;48.562;12.108;2022-11-25T16:20:12;23.50;;;21.08;;
26062;SDS011;13837;48.562;12.108;2022-11-25T16:22:52;26.45;;;23.83;;
26062;SDS011;13837;48.562;12.108;2022-11-25T16:25:27;30.48;;;26.33;;
26062;SDS011;13837;48.562;12.108;2022-11-25T16:28:01;29.77;;;26.75;;
26062;SDS011;13837;48.562;12.108;2022-11-25T16:30:37;31.92;;;28.50;;
26062;SDS011;13837;48.562;12.108;2022-11-25T16:33:28;30.77;;;27.80;;
26062;SDS011;13837;48.562;12.108;2022-11-25T16:36:06;31.98;;;28.58;;
26062;SDS011;13837;48.562;12.108;2022-11-25T16:38:57;28.83;;;26.05;;
26062;SDS011;13837;48.562;12.108;2022-11-25T16:41:58;26.02;;;23.33;;
26062;SDS011;13837;48.562;12.108;2022-11-25T16:44:39;31.02;;;24.50;;
26062;SDS011;13837;48.562;12.108;2022-11-25T16:47:13;29.25;;;26.00;;
26062;SDS011;13837;48.562;12.108;2022-11-25T16:49:51;34.20;;;28.98;;
26062;SDS011;13837;48.562;12.108;2022-11-25T16:52:26;31.25;;;26.92;;
26062;SDS011;13837;48.562;12.108;2022-11-25T16:54:54;36.37;;;30.27;;
26062;SDS011;13837;48.562;12.108;2022-11-25T16:57:34;38.53;;;30.50;;
26062;SDS011;13837;48.562;12.108;2022-11-25T17:00:28;48.95;;;34.08;;
26062;SDS011;13837;48.562;12.108;2022-11-25T17:02:57;52.33;;;35.90;;
26062;SDS011;13837;48.562;12.108;2022-11-25T17:05:32;44.85;;;33.75;;
26062;SDS011;13837;48.562;12.108;2022-11-25T17:08:04;46.60;;;32.35;;
26062;SDS011;13837;48.562;12.108;2022-11-25T17:10:30;41.20;;;31.98;;
26062;SDS011;13837;48.562;12.108;2022-11-25T17:12:57;44.17;;;31.70;;
26062;SDS011;13837;48.562;12.108;2022-11-25T17:15:29;45.03;;;34.37;;
26062;SDS011;13837;48.562;12.108;2022-11-25T17:18:00;42.65;;;31.35;;
26062;SDS011;13837;48.562;12.108;2022-11-25T17:20:32;35.03;;;26.33;;
26062;SDS011;13837;48.562;12.108;2022-11-25T17:23:01;30.55;;;27.10;;
26062;SDS011;13837;48.562;12.108;2022-11-25T17:25:30;34.53;;;26.77;;
26062;SDS011;13837;48.562;12.108;2022-11-25T17:28:05;32.72;;;29.20;;
26062;SDS011;13837;48.562;12.108;2022-11-25T17:30:36;29.15;;;26.08;;
26062;SDS011;13837;48.562;12.108;2022-11-25T17:33:24;24.15;;;21.60;;
26062;SDS011;13837;48.562;12.108;2022-11-25T17:36:02;23.67;;;21.10;;
26062;SDS011;13837;48.562;12.108;2022-11-25T17:38:39;25.30;;;22.73;;
26062;SDS011;13837;48.562;12.108;2022-11-25T17:41:13;24.33;;;22.02;;
26062;SDS011;13837;48.562;12.108;2022-11-25T17:43:43;24.63;;;22.23;;
26062;SDS011;13837;48.562;12.108;2022-11-25T17:46:26;25.65;;;22.85;;
26062;SDS011;13837;48.562;12.108;2022-11-25T17:48:55;23.40;;;20.90;;
26062;SDS011;13837;48.562;12.108;2022-11-25T17:51:27;25.27;;;22.63;;
26062;SDS011;13837;48.562;12.108;2022-11-25T17:53:55;24.95;;;22.48;;
26062;SDS011;13837;48.562;12.108;2022-11-25T17:56:26;24.52;;;22.25;;
26062;SDS011;13837;48.562;12.108;2022-11-25T17:59:04;23.05;;;20.92;;
26062;SDS011;13837;48.562;12.108;2022-11-25T18:04:16;25.23;;;22.48;;
26062;SDS011;13837;48.562;12.108;2022-11-25T18:07:00;64.90;;;40.95;;
26062;SDS011;13837;48.562;12.108;2022-11-25T18:09:29;35.78;;;27.77;;
26062;SDS011;13837;48.562;12.108;2022-11-25T18:12:11;36.08;;;27.55;;
26062;SDS011;13837;48.562;12.108;2022-11-25T18:14:59;27.10;;;24.17;;
26062;SDS011;13837;48.562;12.108;2022-11-25T18:17:39;26.42;;;23.83;;
26062;SDS011;13837;48.562;12.108;2022-11-25T18:20:22;26.50;;;23.67;;
26062;SDS011;13837;48.562;12.108;2022-11-25T18:29:27;26.90;;;24.02;;
26062;SDS011;13837;48.562;12.108;2022-11-25T18:40:31;63.83;;;47.78;;
26062;SDS011;13837;48.562;12.108;2022-11-25T18:43:04;51.13;;;39.95;;
26062;SDS011;13837;48.562;12.108;2022-11-25T18:45:42;26.88;;;24.10;;
26062;SDS011;13837;48.562;12.108;2022-11-25T18:50:59;27.98;;;24.95;;
26062;SDS011;13837;48.562;12.108;2022-11-25T18:53:44;27.92;;;25.00;;
26062;SDS011;13837;48.562;12.108;2022-11-25T18:56:15;25.52;;;23.15;;
26062;SDS011;13837;48.562;12.108;2022-11-25T18:59:01;27.20;;;23.92;;
26062;SDS011;13837;48.562;12.108;2022-11-25T19:01:35;26.02;;;23.42;;
26062;SDS011;13837;48.562;12.108;2022-11-25T19:04:01;28.48;;;25.48;;
26062;SDS011;13837;48.562;12.108;2022-11-25T19:06:35;27.33;;;24.27;;
26062;SDS011;13837;48.562;12.108;2022-11-25T19:09:02;30.70;;;26.83;;
26062;SDS011;13837;48.562;12.108;2022-11-25T19:11:31;40.22;;;31.95;;
26062;SDS011;13837;48.562;12.108;2022-11-25T19:14:05;36.95;;;28.77;;
26062;SDS011;13837;48.562;12.108;2022-11-25T19:17:03;34.45;;;28.17;;
26062;SDS011;13837;48.562;12.108;2022-11-25T19:19:34;34.03;;;30.55;;
26062;SDS011;13837;48.562;12.108;2022-11-25T19:22:23;30.52;;;27.20;;
26062;SDS011;13837;48.562;12.108;2022-11-25T19:24:52;27.30;;;24.60;;
26062;SDS011;13837;48.562;12.108;2022-11-25T19:27:21;28.30;;;25.45;;
26062;SDS011;13837;48.562;12.108;2022-11-25T19:29:51;34.20;;;28.55;;
26062;SDS011;13837;48.562;12.108;2022-11-25T19:32:27;32.00;;;28.20;;
26062;SDS011;13837;48.562;12.108;2022-11-25T19:35:00;38.63;;;30.42;;
26062;SDS011;13837;48.562;12.108;2022-11-25T19:37:44;32.22;;;28.70;;
26062;SDS011;13837;48.562;12.108;2022-11-25T19:40:35;36.33;;;31.35;;
26062;SDS011;13837;48.562;12.108;2022-11-25T19:43:06;33.08;;;29.23;;
26062;SDS011;13837;48.562;12.108;2022-11-25T19:45:35;35.08;;;28.67;;
26062;SDS011;13837;48.562;12.108;2022-11-25T19:48:05;33.95;;;29.40;;
26062;SDS011;13837;48.562;12.108;2022-11-25T19:50:51;30.35;;;27.20;;
26062;SDS011;13837;48.562;12.108;2022-11-25T19:53:39;31.85;;;27.55;;
26062;SDS011;13837;48.562;12.108;2022-11-25T19:56:15;31.80;;;28.50;;
26062;SDS011;13837;48.562;12.108;2022-11-25T19:58:51;32.30;;;27.52;;
26062;SDS011;13837;48.562;12.108;2022-11-25T20:01:38;29.65;;;26.70;;
26062;SDS011;13837;48.562;12.108;2022-11-25T20:04:18;28.77;;;24.20;;
26062;SDS011;13837;48.562;12.108;2022-11-25T20:06:46;28.20;;;25.25;;
26062;SDS011;13837;48.562;12.108;2022-11-25T20:09:21;28.13;;;25.27;;
26062;SDS011;13837;48.562;12.108;2022-11-25T20:11:56;27.70;;;24.67;;
26062;SDS011;13837;48.562;12.108;2022-11-25T20:14:28;30.77;;;27.67;;
26062;SDS011;13837;48.562;12.108;2022-11-25T20:19:41;37.08;;;30.13;;
26062;SDS011;13837;48.562;12.108;2022-11-25T20:22:08;29.58;;;26.50;;
26062;SDS011;13837;48.562;12.108;2022-11-25T20:24:48;34.95;;;27.65;;
26062;SDS011;13837;48.562;12.108;2022-11-25T20:27:25;27.92;;;24.95;;
26062;SDS011;13837;48.562;12.108;2022-11-25T20:30:14;29.50;;;23.55;;
26062;SDS011;13837;48.562;12.108;2022-11-25T20:32:59;27.67;;;24.42;;
26062;SDS011;13837;48.562;12.108;2022-11-25T20:35:25;28.63;;;25.27;;
26062;SDS011;13837;48.562;12.108;2022-11-25T20:38:20;29.65;;;25.88;;
26062;SDS011;13837;48.562;12.108;2022-11-25T20:40:57;34.75;;;27.85;;
26062;SDS011;13837;48.562;12.108;2022-11-25T20:43:32;35.70;;;27.60;;
26062;SDS011;13837;48.562;12.108;2022-11-25T20:46:11;31.17;;;26.63;;
26062;SDS011;13837;48.562;12.108;2022-11-25T20:48:55;34.33;;;28.02;;
26062;SDS011;13837;48.562;12.108;2022-11-25T20:51:27;33.25;;;26.70;;
26062;SDS011;13837;48.562;12.108;2022-11-25T20:54:01;28.17;;;25.27;;
26062;SDS011;13837;48.562;12.108;2022-11-25T20:56:31;34.08;;;26.35;;
26062;SDS011;13837;48.562;12.108;2022-11-25T20:59:03;31.08;;;25.63;;
26062;SDS011;13837;48.562;12.108;2022-11-25T21:01:45;32.45;;;27.45;;
26062;SDS011;13837;48.562;12.108;2022-11-25T21:04:16;31.90;;;27.73;;
26062;SDS011;13837;48.562;12.108;2022-11-25T21:07:03;31.35;;;27.20;;
26062;SDS011;13837;48.562;12.108;2022-11-25T21:09:35;34.28;;;27.25;;
26062;SDS011;13837;48.562;12.108;2022-11-25T21:12:05;30.67;;;28.15;;
26062;SDS011;13837;48.562;12.108;2022-11-25T21:14:39;28.92;;;25.83;;
26062;SDS011;13837;48.562;12.108;2022-11-25T21:17:08;33.35;;;26.98;;
26062;SDS011;13837;48.562;12.108;2022-11-25T21:19:41;27.92;;;24.92;;
26062;SDS011;13837;48.562;12.108;2022-11-25T21:22:18;33.42;;;26.33;;
26062;SDS011;13837;48.562;12.108;2022-11-25T21:24:54;29.27;;;26.05;;
26062;SDS011;13837;48.562;12.108;2022-11-25T21:27:48;32.67;;;26.55;;
26062;SDS011;13837;48.562;12.108;2022-11-25T21:30:23;32.80;;;26.90;;
26062;SDS011;13837;48.562;12.108;2022-11-25T21:32:59;28.77;;;25.75;;
26062;SDS011;13837;48.562;12.108;2022-11-25T21:35:53;29.30;;;25.42;;
26062;SDS011;13837;48.562;12.108;2022-11-25T21:38:31;30.58;;;25.98;;
26062;SDS011;13837;48.562;12.108;2022-11-25T21:41:00;28.80;;;25.85;;
26062;SDS011;13837;48.562;12.108;2022-11-25T21:46:20;34.05;;;27.00;;
26062;SDS011;13837;48.562;12.108;2022-11-25T21:48:55;36.58;;;28.45;;
26062;SDS011;13837;48.562;12.108;2022-11-25T21:51:36;32.10;;;27.70;;
26062;SDS011;13837;48.562;12.108;2022-11-25T21:54:08;32.10;;;25.65;;
26062;SDS011;13837;48.562;12.108;2022-11-25T21:56:41;35.03;;;27.60;;
26062;SDS011;13837;48.562;12.108;2022-11-25T21:59:13;34.30;;;27.70;;
26062;SDS011;13837;48.562;12.108;2022-11-25T22:02:15;34.67;;;27.50;;
26062;SDS011;13837;48.562;12.108;2022-11-25T22:04:47;40.17;;;27.98;;
26062;SDS011;13837;48.562;12.108;2022-11-25T22:07:14;46.42;;;31.77;;
26062;SDS011;13837;48.562;12.108;2022-11-25T22:10:21;33.75;;;27.52;;
26062;SDS011;13837;48.562;12.108;2022-11-25T22:12:50;36.30;;;28.67;;
26062;SDS011;13837;48.562;12.108;2022-11-25T22:15:18;35.25;;;29.70;;
26062;SDS011;13837;48.562;12.108;2022-11-25T22:17:54;32.58;;;28.17;;
26062;SDS011;13837;48.562;12.108;2022-11-25T22:20:32;33.65;;;27.23;;
26062;SDS011;13837;48.562;12.108;2022-11-25T22:23:10;30.83;;;27.65;;
26062;SDS011;13837;48.562;12.108;2022-11-25T22:25:40;31.88;;;28.45;;
26062;SDS011;13837;48.562;12.108;2022-11-25T22:28:17;31.65;;;28.35;;
26062;SDS011;13837;48.562;12.108;2022-11-25T22:30:57;31.17;;;27.75;;
26062;SDS011;13837;48.562;12.108;2022-11-25T22:33:42;37.65;;;29.05;;
26062;SDS011;13837;48.562;12.108;2022-11-25T22:36:30;34.97;;;28.73;;
26062;SDS011;13837;48.562;12.108;2022-11-25T22:39:12;36.40;;;30.98;;
26062;SDS011;13837;48.562;12.108;2022-11-25T22:41:53;35.47;;;29.67;;
26062;SDS011;13837;48.562;12.108;2022-11-25T22:44:32;37.95;;;29.95;;
26062;SDS011;13837;48.562;12.108;2022-11-25T22:50:23;33.40;;;28.15;;
26062;SDS011;13837;48.562;12.108;2022-11-25T22:53:04;34.28;;;27.70;;
26062;SDS011;13837;48.562;12.108;2022-11-25T22:55:56;28.10;;;25.20;;
26062;SDS011;13837;48.562;12.108;2022-11-25T22:58:32;29.23;;;25.10;;
26062;SDS011;13837;48.562;12.108;2022-11-25T23:00:58;27.55;;;24.23;;
26062;SDS011;13837;48.562;12.108;2022-11-25T23:03:25;27.58;;;24.67;;
26062;SDS011;13837;48.562;12.108;2022-11-25T23:05:59;27.58;;;24.50;;
26062;SDS011;13837;48.562;12.108;2022-11-25T23:08:32;26.98;;;24.08;;
26062;SDS011;13837;48.562;12.108;2022-11-25T23:11:12;29.50;;;23.42;;
26062;SDS011;13837;48.562;12.108;2022-11-25T23:13:43;26.02;;;23.25;;
26062;SDS011;13837;48.562;12.108;2022-11-25T23:16:20;25.55;;;23.05;;
26062;SDS011;13837;48.562;12.108;2022-11-25T23:18:56;25.75;;;23.20;;
26062;SDS011;13837;48.562;12.108;2022-11-25T23:21:30;25.10;;;22.45;;
26062;SDS011;13837;48.562;12.108;2022-11-25T23:26:35;26.33;;;23.77;;
26062;SDS011;13837;48.562;12.108;2022-11-25T23:29:04;26.83;;;23.65;;
26062;SDS011;13837;48.562;12.108;2022-11-25T23:31:41;29.15;;;25.02;;
26062;SDS011;13837;48.562;12.108;2022-11-25T23:34:14;31.35;;;26.30;;
26062;SDS011;13837;48.562;12.108;2022-11-25T23:36:58;34.83;;;28.85;;
26062;SDS011;13837;48.562;12.108;2022-11-25T23:39:30;31.48;;;27.80;;
26062;SDS011;13837;48.562;12.108;2022-11-25T23:42:08;32.35;;;26.08;;
26062;SDS011;13837;48.562;12.108;2022-11-25T23:44:44;33.97;;;27.67;;
26062;SDS011;13837;48.562;12.108;2022-11-25T23:47:21;31.15;;;25.75;;
26062;SDS011;13837;48.562;12.108;2022-11-25T23:49:54;32.03;;;25.95;;
26062;SDS011;13837;48.562;12.108;2022-11-25T23:52:25;29.63;;;26.00;;
26062;SDS011;13837;48.562;12.108;2022-11-25T23:55:04;32.58;;;26.15;;
26062;SDS011;13837;48.562;12.108;2022-11-25T23:57:31;31.95;;;26.85;;
